KAL501 RKPK-RKSS
Flight info
| Callsign | KAL501 |
|---|---|
| Flight time | 0h 50m |
| Altitude | 20000 |
| Route | SOORO2 KALOD Y782 BITUX Z53 BASEM Y685 GUKDO |
| Aircraft | B738/M-VGDW/C |
Departure
| Time | 2026-05-01 13:38 |
|---|---|
| Airport | Gimhae International Airport (RKPK) |
Arrival
| Time | 2026-05-01 14:28 |
|---|---|
| Airport | Gimpo International Airport (RKSS) |
| Time | Latitude | Longitude | Altitude | Speed | Heading |
|---|---|---|---|---|---|
| 2026-05-01 13:19 | 35.17008 | 128.94747 | 22 ft | 0 kts | 23° |
| 2026-05-01 13:30 | 35.16987 | 128.94737 | 22 ft | 2 kts | 20° |
| 2026-05-01 13:31 | 35.16955 | 128.94727 | 22 ft | 2 kts | 4° |
| 2026-05-01 13:31 | 35.16922 | 128.94738 | 22 ft | 0 kts | 329° |
| 2026-05-01 13:35 | 35.16928 | 128.94732 | 22 ft | 5 kts | 317° |
| 2026-05-01 13:35 | 35.16945 | 128.94647 | 24 ft | 14 kts | 285° |
| 2026-05-01 13:35 | 35.16996 | 128.94435 | 22 ft | 13 kts | 268° |
| 2026-05-01 13:36 | 35.16988 | 128.94327 | 24 ft | 13 kts | 263° |
| 2026-05-01 13:36 | 35.16977 | 128.94222 | 25 ft | 12 kts | 263° |
| 2026-05-01 13:36 | 35.16971 | 128.94059 | 22 ft | 4 kts | 312° |
| 2026-05-01 13:37 | 35.16996 | 128.94052 | 21 ft | 4 kts | 351° |
| 2026-05-01 13:37 | 35.17032 | 128.94048 | 21 ft | 7 kts | 355° |
| 2026-05-01 13:37 | 35.17084 | 128.94042 | 22 ft | 12 kts | 354° |
| 2026-05-01 13:37 | 35.17348 | 128.94008 | 25 ft | 73 kts | 354° |
| 2026-05-01 13:38 | 35.19239 | 128.93772 | 172 ft | 180 kts | 355° |
| 2026-05-01 13:38 | 35.20482 | 128.93596 | 997 ft | 181 kts | 342° |
| 2026-05-01 13:38 | 35.21391 | 128.92629 | 1854 ft | 178 kts | 289° |
| 2026-05-01 13:39 | 35.21463 | 128.91018 | 2171 ft | 206 kts | 257° |
| 2026-05-01 13:39 | 35.21252 | 128.89287 | 2503 ft | 207 kts | 278° |
| 2026-05-01 13:39 | 35.21762 | 128.87657 | 2795 ft | 213 kts | 303° |
| 2026-05-01 13:39 | 35.22667 | 128.86174 | 3058 ft | 227 kts | 303° |
| 2026-05-01 13:40 | 35.23569 | 128.84489 | 3341 ft | 243 kts | 300° |
| 2026-05-01 13:40 | 35.24429 | 128.82688 | 3932 ft | 245 kts | 299° |
| 2026-05-01 13:40 | 35.25254 | 128.80853 | 4524 ft | 249 kts | 298° |
| 2026-05-01 13:40 | 35.26084 | 128.78956 | 5180 ft | 249 kts | 299° |
| 2026-05-01 13:41 | 35.26896 | 128.77076 | 5818 ft | 250 kts | 301° |
| 2026-05-01 13:41 | 35.28040 | 128.75505 | 6449 ft | 247 kts | 327° |
| 2026-05-01 13:41 | 35.29618 | 128.74697 | 6970 ft | 255 kts | 347° |
| 2026-05-01 13:41 | 35.31400 | 128.74587 | 7625 ft | 259 kts | 0° |
| 2026-05-01 13:42 | 35.33211 | 128.74812 | 8190 ft | 264 kts | 3° |
| 2026-05-01 13:42 | 35.35039 | 128.75106 | 8795 ft | 267 kts | 4° |
| 2026-05-01 13:42 | 35.36886 | 128.75405 | 9433 ft | 268 kts | 4° |
| 2026-05-01 13:42 | 35.38748 | 128.75698 | 10081 ft | 270 kts | 4° |
| 2026-05-01 13:43 | 35.39991 | 128.75889 | 10403 ft | 275 kts | 3° |
| 2026-05-01 13:43 | 35.41954 | 128.76181 | 10569 ft | 294 kts | 4° |
| 2026-05-01 13:43 | 35.44053 | 128.76486 | 10749 ft | 312 kts | 3° |
| 2026-05-01 13:43 | 35.46267 | 128.76801 | 10887 ft | 329 kts | 3° |
| 2026-05-01 13:44 | 35.48602 | 128.76959 | 11009 ft | 343 kts | 352° |
| 2026-05-01 13:44 | 35.50966 | 128.76299 | 11186 ft | 355 kts | 339° |
| 2026-05-01 13:44 | 35.53168 | 128.74875 | 11636 ft | 360 kts | 325° |
| 2026-05-01 13:44 | 35.55173 | 128.73012 | 12223 ft | 360 kts | 323° |
| 2026-05-01 13:45 | 35.57110 | 128.71131 | 12806 ft | 357 kts | 322° |
| 2026-05-01 13:45 | 35.59065 | 128.69215 | 13257 ft | 361 kts | 322° |
| 2026-05-01 13:45 | 35.61041 | 128.67291 | 13716 ft | 365 kts | 322° |
| 2026-05-01 13:45 | 35.63047 | 128.65352 | 14173 ft | 369 kts | 322° |
| 2026-05-01 13:46 | 35.65076 | 128.63400 | 14719 ft | 370 kts | 322° |
| 2026-05-01 13:46 | 35.67107 | 128.61453 | 15270 ft | 371 kts | 322° |
| 2026-05-01 13:46 | 35.69148 | 128.59502 | 15816 ft | 372 kts | 322° |
| 2026-05-01 13:46 | 35.71201 | 128.57544 | 16281 ft | 375 kts | 322° |
| 2026-05-01 13:47 | 35.73274 | 128.55568 | 16713 ft | 379 kts | 322° |
| 2026-05-01 13:47 | 35.75359 | 128.53579 | 17232 ft | 380 kts | 322° |
| 2026-05-01 13:47 | 35.77454 | 128.51579 | 17748 ft | 381 kts | 322° |
| 2026-05-01 13:47 | 35.79534 | 128.49594 | 18213 ft | 384 kts | 322° |
| 2026-05-01 13:48 | 35.81653 | 128.47567 | 18652 ft | 385 kts | 322° |
| 2026-05-01 13:48 | 35.83774 | 128.45537 | 19065 ft | 388 kts | 322° |
| 2026-05-01 13:48 | 35.85923 | 128.43478 | 19353 ft | 393 kts | 322° |
| 2026-05-01 13:48 | 35.88089 | 128.41400 | 19734 ft | 395 kts | 322° |
| 2026-05-01 13:49 | 35.90259 | 128.39321 | 19919 ft | 390 kts | 322° |
| 2026-05-01 13:49 | 35.92401 | 128.37265 | 19926 ft | 391 kts | 322° |
| 2026-05-01 13:49 | 35.94569 | 128.35185 | 19919 ft | 395 kts | 322° |
| 2026-05-01 13:49 | 35.96755 | 128.33095 | 19921 ft | 398 kts | 322° |
| 2026-05-01 13:50 | 35.98943 | 128.31011 | 19908 ft | 396 kts | 322° |
| 2026-05-01 13:50 | 36.01116 | 128.28926 | 19905 ft | 394 kts | 322° |
| 2026-05-01 13:50 | 36.03270 | 128.26854 | 19906 ft | 393 kts | 322° |
| 2026-05-01 13:50 | 36.05428 | 128.24771 | 19910 ft | 392 kts | 322° |
| 2026-05-01 13:51 | 36.07552 | 128.22718 | 19903 ft | 392 kts | 322° |
| 2026-05-01 13:51 | 36.09713 | 128.20631 | 19900 ft | 393 kts | 322° |
| 2026-05-01 13:51 | 36.11864 | 128.18552 | 19902 ft | 393 kts | 322° |
| 2026-05-01 13:51 | 36.14029 | 128.16459 | 19904 ft | 394 kts | 322° |
| 2026-05-01 13:52 | 36.16191 | 128.14367 | 19907 ft | 394 kts | 322° |
| 2026-05-01 13:52 | 36.18352 | 128.12275 | 19914 ft | 394 kts | 322° |
| 2026-05-01 13:52 | 36.20517 | 128.10177 | 19921 ft | 395 kts | 322° |
| 2026-05-01 13:52 | 36.22688 | 128.08072 | 19930 ft | 395 kts | 322° |
| 2026-05-01 13:53 | 36.24846 | 128.06035 | 19933 ft | 395 kts | 326° |
| 2026-05-01 13:53 | 36.29832 | 128.03149 | 19943 ft | 398 kts | 340° |
| 2026-05-01 13:53 | 36.32514 | 128.02304 | 19952 ft | 400 kts | 348° |
| 2026-05-01 13:54 | 36.35291 | 128.01900 | 19964 ft | 401 kts | 351° |
| 2026-05-01 13:54 | 36.38070 | 128.01551 | 19959 ft | 401 kts | 351° |
| 2026-05-01 13:54 | 36.40815 | 128.01206 | 19952 ft | 401 kts | 351° |
| 2026-05-01 13:54 | 36.43627 | 128.00843 | 19973 ft | 401 kts | 350° |
| 2026-05-01 13:55 | 36.46405 | 128.00472 | 19970 ft | 401 kts | 350° |
| 2026-05-01 13:55 | 36.49191 | 128.00092 | 19969 ft | 402 kts | 350° |
| 2026-05-01 13:55 | 36.51941 | 127.99715 | 19972 ft | 403 kts | 350° |
| 2026-05-01 13:55 | 36.54734 | 127.99331 | 19978 ft | 403 kts | 350° |
| 2026-05-01 13:56 | 36.57531 | 127.98948 | 19972 ft | 404 kts | 350° |
| 2026-05-01 13:56 | 36.60325 | 127.98566 | 19971 ft | 404 kts | 350° |
| 2026-05-01 13:56 | 36.63125 | 127.98184 | 19969 ft | 404 kts | 350° |
| 2026-05-01 13:56 | 36.65921 | 127.97801 | 19976 ft | 405 kts | 350° |
| 2026-05-01 13:57 | 36.68732 | 127.97417 | 19970 ft | 405 kts | 350° |
| 2026-05-01 13:57 | 36.71536 | 127.97035 | 19973 ft | 405 kts | 350° |
| 2026-05-01 13:57 | 36.74333 | 127.96653 | 19961 ft | 404 kts | 350° |
| 2026-05-01 13:57 | 36.77126 | 127.96270 | 19960 ft | 404 kts | 350° |
| 2026-05-01 13:58 | 36.79895 | 127.95879 | 19954 ft | 403 kts | 348° |
| 2026-05-01 13:58 | 36.82546 | 127.94926 | 19726 ft | 393 kts | 333° |
| 2026-05-01 13:58 | 36.84870 | 127.93187 | 19506 ft | 387 kts | 323° |
| 2026-05-01 13:58 | 36.86862 | 127.90952 | 19245 ft | 385 kts | 311° |
| 2026-05-01 13:59 | 36.88446 | 127.88232 | 19016 ft | 387 kts | 306° |
| 2026-05-01 13:59 | 36.89946 | 127.85444 | 18758 ft | 387 kts | 306° |
| 2026-05-01 13:59 | 36.91456 | 127.82695 | 18514 ft | 387 kts | 306° |
| 2026-05-01 13:59 | 36.92991 | 127.79946 | 18262 ft | 386 kts | 307° |
| 2026-05-01 14:00 | 36.94541 | 127.77190 | 18008 ft | 385 kts | 307° |
| 2026-05-01 14:00 | 36.96080 | 127.74457 | 17758 ft | 384 kts | 307° |
| 2026-05-01 14:00 | 36.97622 | 127.71718 | 17502 ft | 383 kts | 307° |
| 2026-05-01 14:00 | 36.99151 | 127.68998 | 16971 ft | 381 kts | 307° |
| 2026-05-01 14:01 | 37.00661 | 127.66307 | 16430 ft | 375 kts | 307° |
| 2026-05-01 14:01 | 37.02150 | 127.63637 | 16134 ft | 376 kts | 306° |
| 2026-05-01 14:01 | 37.03585 | 127.60886 | 15662 ft | 376 kts | 304° |
| 2026-05-01 14:01 | 37.04957 | 127.58124 | 15176 ft | 370 kts | 304° |
| 2026-05-01 14:02 | 37.06290 | 127.55404 | 14714 ft | 363 kts | 304° |
| 2026-05-01 14:02 | 37.07602 | 127.52726 | 14236 ft | 358 kts | 304° |
| 2026-05-01 14:02 | 37.08899 | 127.50090 | 13768 ft | 353 kts | 304° |
| 2026-05-01 14:02 | 37.10180 | 127.47497 | 13300 ft | 347 kts | 304° |
| 2026-05-01 14:03 | 37.11444 | 127.44939 | 12862 ft | 343 kts | 304° |
| 2026-05-01 14:03 | 37.12677 | 127.42451 | 12412 ft | 339 kts | 304° |
| 2026-05-01 14:03 | 37.13846 | 127.40093 | 12001 ft | 335 kts | 304° |
| 2026-05-01 14:03 | 37.15086 | 127.37589 | 11556 ft | 331 kts | 304° |
| 2026-05-01 14:04 | 37.16293 | 127.35147 | 11134 ft | 328 kts | 304° |
| 2026-05-01 14:04 | 37.17492 | 127.32724 | 10708 ft | 324 kts | 304° |
| 2026-05-01 14:04 | 37.18676 | 127.30332 | 10279 ft | 322 kts | 303° |
| 2026-05-01 14:04 | 37.19457 | 127.28753 | 10018 ft | 319 kts | 303° |
| 2026-05-01 14:05 | 37.21016 | 127.25595 | 9462 ft | 317 kts | 303° |
| 2026-05-01 14:05 | 37.22160 | 127.23277 | 9058 ft | 315 kts | 302° |
| 2026-05-01 14:05 | 37.23333 | 127.20956 | 8644 ft | 313 kts | 305° |
| 2026-05-01 14:05 | 37.24645 | 127.18778 | 8241 ft | 311 kts | 310° |
| 2026-05-01 14:06 | 37.26097 | 127.16788 | 7849 ft | 306 kts | 314° |
| 2026-05-01 14:06 | 37.27572 | 127.14931 | 7474 ft | 295 kts | 315° |
| 2026-05-01 14:06 | 37.29007 | 127.13150 | 7099 ft | 285 kts | 315° |
| 2026-05-01 14:06 | 37.30396 | 127.11411 | 6718 ft | 277 kts | 314° |
| 2026-05-01 14:07 | 37.31737 | 127.09722 | 6354 ft | 269 kts | 314° |
| 2026-05-01 14:07 | 37.33039 | 127.08081 | 6002 ft | 261 kts | 314° |
| 2026-05-01 14:07 | 37.34306 | 127.06484 | 5661 ft | 255 kts | 314° |
| 2026-05-01 14:08 | 37.36734 | 127.03423 | 5010 ft | 244 kts | 313° |
| 2026-05-01 14:08 | 37.37907 | 127.01944 | 4694 ft | 231 kts | 313° |
| 2026-05-01 14:08 | 37.38994 | 127.00572 | 4391 ft | 213 kts | 313° |
| 2026-05-01 14:08 | 37.40005 | 126.99300 | 4111 ft | 197 kts | 313° |
| 2026-05-01 14:09 | 37.40950 | 126.98111 | 3862 ft | 188 kts | 312° |
| 2026-05-01 14:09 | 37.41865 | 126.96950 | 3629 ft | 186 kts | 311° |
| 2026-05-01 14:09 | 37.42785 | 126.95789 | 3392 ft | 189 kts | 311° |
| 2026-05-01 14:09 | 37.43722 | 126.94608 | 3115 ft | 192 kts | 313° |
| 2026-05-01 14:10 | 37.44649 | 126.93450 | 2879 ft | 182 kts | 311° |
| 2026-05-01 14:10 | 37.45521 | 126.92353 | 2673 ft | 174 kts | 311° |
| 2026-05-01 14:10 | 37.46369 | 126.91288 | 2412 ft | 166 kts | 311° |
| 2026-05-01 14:10 | 37.47167 | 126.90282 | 2181 ft | 163 kts | 311° |
| 2026-05-01 14:11 | 37.47965 | 126.89276 | 1968 ft | 163 kts | 311° |
| 2026-05-01 14:11 | 37.49570 | 126.87255 | 1545 ft | 171 kts | 312° |
| 2026-05-01 14:11 | 37.50401 | 126.86248 | 1371 ft | 164 kts | 312° |
| 2026-05-01 14:12 | 37.51190 | 126.85217 | 985 ft | 161 kts | 310° |
| 2026-05-01 14:12 | 37.51753 | 126.84473 | 788 ft | 156 kts | 310° |
| 2026-05-01 14:12 | 37.52550 | 126.83486 | 647 ft | 166 kts | 312° |
| 2026-05-01 14:12 | 37.53389 | 126.82449 | 410 ft | 167 kts | 313° |
| 2026-05-01 14:13 | 37.54172 | 126.81472 | 245 ft | 152 kts | 309° |
| 2026-05-01 14:13 | 37.54660 | 126.80858 | 135 ft | 153 kts | 309° |
| 2026-05-01 14:13 | 37.55712 | 126.79530 | 804 ft | 167 kts | 310° |
| 2026-05-01 14:13 | 37.56570 | 126.78380 | 1208 ft | 193 kts | 312° |
| 2026-05-01 14:14 | 37.57523 | 126.77172 | 1576 ft | 181 kts | 314° |
| 2026-05-01 14:14 | 37.58406 | 126.76091 | 2212 ft | 176 kts | 313° |
| 2026-05-01 14:14 | 37.59291 | 126.75064 | 2854 ft | 174 kts | 314° |
| 2026-05-01 14:14 | 37.59896 | 126.74388 | 3376 ft | 171 kts | 314° |
| 2026-05-01 14:15 | 37.60774 | 126.73421 | 4146 ft | 166 kts | 314° |
| 2026-05-01 14:15 | 37.61658 | 126.72368 | 4525 ft | 185 kts | 305° |
| 2026-05-01 14:15 | 37.62079 | 126.70854 | 4922 ft | 191 kts | 275° |
| 2026-05-01 14:15 | 37.62052 | 126.69135 | 4970 ft | 198 kts | 259° |
| 2026-05-01 14:16 | 37.61304 | 126.67757 | 4999 ft | 208 kts | 220° |
| 2026-05-01 14:16 | 37.59925 | 126.67010 | 5003 ft | 230 kts | 194° |
| 2026-05-01 14:16 | 37.58223 | 126.67017 | 5023 ft | 258 kts | 181° |
| 2026-05-01 14:16 | 37.56368 | 126.67341 | 4991 ft | 273 kts | 172° |
| 2026-05-01 14:17 | 37.54510 | 126.67836 | 5003 ft | 272 kts | 171° |
| 2026-05-01 14:17 | 37.52654 | 126.68345 | 5007 ft | 275 kts | 171° |
| 2026-05-01 14:17 | 37.50777 | 126.68871 | 5002 ft | 275 kts | 171° |
| 2026-05-01 14:17 | 37.48970 | 126.69537 | 4871 ft | 276 kts | 155° |
| 2026-05-01 14:18 | 37.47465 | 126.71040 | 4600 ft | 278 kts | 133° |
| 2026-05-01 14:18 | 37.46191 | 126.72877 | 4298 ft | 279 kts | 131° |
| 2026-05-01 14:18 | 37.44943 | 126.74732 | 4096 ft | 277 kts | 131° |
| 2026-05-01 14:18 | 37.43702 | 126.76599 | 4026 ft | 276 kts | 131° |
| 2026-05-01 14:19 | 37.42477 | 126.78452 | 3991 ft | 274 kts | 131° |
| 2026-05-01 14:19 | 37.41268 | 126.80285 | 3990 ft | 271 kts | 131° |
| 2026-05-01 14:19 | 37.40079 | 126.82091 | 3987 ft | 263 kts | 131° |
| 2026-05-01 14:19 | 37.38940 | 126.83833 | 3973 ft | 253 kts | 131° |
| 2026-05-01 14:20 | 37.37819 | 126.85544 | 3996 ft | 252 kts | 131° |
| 2026-05-01 14:20 | 37.35607 | 126.88925 | 4022 ft | 250 kts | 131° |
| 2026-05-01 14:20 | 37.34493 | 126.90614 | 4011 ft | 251 kts | 131° |
| 2026-05-01 14:21 | 37.33389 | 126.92285 | 4001 ft | 251 kts | 131° |
| 2026-05-01 14:21 | 37.32463 | 126.94122 | 3999 ft | 251 kts | 110° |
| 2026-05-01 14:21 | 37.32186 | 126.96234 | 4023 ft | 240 kts | 84° |
| 2026-05-01 14:22 | 37.33581 | 126.99620 | 4024 ft | 215 kts | 33° |
| 2026-05-01 14:22 | 37.34891 | 127.00490 | 4011 ft | 211 kts | 7° |
| 2026-05-01 14:22 | 37.36318 | 127.00597 | 4034 ft | 204 kts | 352° |
| 2026-05-01 14:22 | 37.37725 | 127.00505 | 4017 ft | 198 kts | 351° |
| 2026-05-01 14:23 | 37.38930 | 126.99999 | 4004 ft | 171 kts | 317° |
| 2026-05-01 14:23 | 37.39821 | 126.99082 | 4005 ft | 168 kts | 320° |
| 2026-05-01 14:23 | 37.40775 | 126.98161 | 3830 ft | 177 kts | 317° |
| 2026-05-01 14:23 | 37.41710 | 126.97133 | 3615 ft | 180 kts | 313° |
| 2026-05-01 14:24 | 37.42614 | 126.96046 | 3379 ft | 178 kts | 311° |
| 2026-05-01 14:24 | 37.43517 | 126.94921 | 3147 ft | 179 kts | 311° |
| 2026-05-01 14:24 | 37.44374 | 126.93843 | 2898 ft | 172 kts | 311° |
| 2026-05-01 14:24 | 37.45217 | 126.92779 | 2696 ft | 173 kts | 311° |
| 2026-05-01 14:25 | 37.46081 | 126.91683 | 2460 ft | 175 kts | 311° |
| 2026-05-01 14:25 | 37.46914 | 126.90631 | 2217 ft | 165 kts | 311° |
| 2026-05-01 14:25 | 37.47718 | 126.89616 | 2002 ft | 163 kts | 311° |
| 2026-05-01 14:25 | 37.48495 | 126.88629 | 1740 ft | 165 kts | 309° |
| 2026-05-01 14:26 | 37.49285 | 126.87587 | 1475 ft | 167 kts | 310° |
| 2026-05-01 14:26 | 37.50923 | 126.85539 | 1049 ft | 165 kts | 312° |
| 2026-05-01 14:26 | 37.51739 | 126.84498 | 903 ft | 168 kts | 309° |
| 2026-05-01 14:27 | 37.52570 | 126.83466 | 619 ft | 166 kts | 312° |
| 2026-05-01 14:27 | 37.53384 | 126.82441 | 438 ft | 163 kts | 310° |
| 2026-05-01 14:27 | 37.54185 | 126.81452 | 246 ft | 162 kts | 311° |
| 2026-05-01 14:28 | 37.55645 | 126.79604 | 67 ft | 125 kts | 315° |
| 2026-05-01 14:28 | 37.56165 | 126.78965 | 60 ft | 83 kts | 314° |
| 2026-05-01 14:28 | 37.56463 | 126.78589 | 67 ft | 40 kts | 315° |
| 2026-05-01 14:28 | 37.56617 | 126.78512 | 65 ft | 17 kts | 38° |
| 2026-05-01 14:29 | 37.56659 | 126.78634 | 65 ft | 16 kts | 111° |
| 2026-05-01 14:29 | 37.56581 | 126.78700 | 65 ft | 13 kts | 131° |
| 2026-05-01 14:30 | 37.56360 | 126.79018 | 65 ft | 22 kts | 134° |
| 2026-05-01 14:30 | 37.56253 | 126.79154 | 65 ft | 21 kts | 136° |
| 2026-05-01 14:30 | 37.56147 | 126.79283 | 65 ft | 20 kts | 135° |
| 2026-05-01 14:31 | 37.55957 | 126.79530 | 65 ft | 19 kts | 121° |
| 2026-05-01 14:31 | 37.55928 | 126.79690 | 65 ft | 19 kts | 99° |
| 2026-05-01 14:31 | 37.55908 | 126.79848 | 65 ft | 18 kts | 99° |
| 2026-05-01 14:31 | 37.55871 | 126.79991 | 65 ft | 17 kts | 130° |
| 2026-05-01 14:32 | 37.55817 | 126.80061 | 65 ft | 3 kts | 134° |
| 2026-05-01 14:32 | 37.55789 | 126.80103 | 65 ft | 8 kts | 115° |
| 2026-05-01 14:32 | 37.55810 | 126.80163 | 65 ft | 8 kts | 39° |
| 2026-05-01 14:32 | 37.55829 | 126.80186 | 65 ft | 0 kts | 44° |
| 2026-05-01 14:33 | 37.55830 | 126.80188 | 65 ft | 0 kts | 46° |